Live Webcam Brienzersee more information Live Webcam Brienzersee


Thunder radar more information blitzortung!


Rain radar more information rain snow radar


Besuchen Sie unsere anderen Wetter Stationen:

Template documentation
and downloads

And another site



Select another period ( hide this area )

Einheiten Zeitraum Custom range Directly to
metrisch Englisch Beide
Tägliche Wöchentliche Monatliche Jährlich
use both date-selectors for a custom range
previous Tag
With this date

WeatherUnderground graphs for this period ( click here )



Warning: Division by zero in /home/webcambr/www/wetterbrienz/weather28x/wu/WU-History4.php on line 835
Tägliche Zusammenfassung für Dienstag 19 März 2019
Zeit Temp. ( °C ) Dew pt. ( °C ) Wind ( km/h ) von Windböen ( km/h ) Luftdruck ( hPa ) Humid.( % ) Rainrate ( cm ) Solar ( W/m2 )
Hoch2,9 0,0 4,3 NNO ( 76/185 ) 5,5 1026,3 83 - 0
Durchchnittswerte1,1 -2,1 2,1 NNO #31/89 3,2 1024,8 79 - NAN #0/89
Wenig-0,3 -4,0 0,3   1,1 1023,9 75 -  
Tägliche Tabular details for Dienstag 19 März 2019
Zeit Temp. ( °C ) Dew pt. ( °C ) Wind ( km/h ) von Windböen ( km/h ) Luftdruck ( hPa ) Humid.( % ) Rainrate ( cm ) Solar ( W/m2 )
00:02 2,9 -0,2 1,1 Norden 1,1 1024,6 80 - -
00:07 2,8 0,0 2,1 NNO 2,9 1024,3 82 - -
00:12 2,5 -0,3 2,6 NO 3,5 1024,6 82 - -
00:17 2,5 -0,3 2,1 NNO 3,5 1024,6 82 - -
00:22 2,6 -0,5 0,3 Norden 2,1 1024,6 80 - -
00:27 2,7 -0,6 1,1 NNO 2,9 1024,3 79 - -
00:32 2,9 -0,6 2,9 NNO 2,9 1024,3 78 - -
00:37 2,6 -0,7 3,2 NO 4,3 1024,3 79 - -
00:42 2,3 -0,8 4,3 NO 5,0 1024,3 80 - -
00:47 2,2 -0,9 2,9 NNO 3,2 1024,6 80 - -
00:52 2,3 -1,0 0,6 Osten 2,1 1024,3 79 - -
00:57 2,5 -0,8 2,6 SSW 2,6 1024,3 79 - -
01:02 2,4 -0,9 2,6 Norden 4,0 1024,3 79 - -
01:07 2,1 -0,8 3,2 NNO 4,3 1024,6 81 - -
01:12 2,0 -0,7 2,1 NO 4,0 1024,6 82 - -
01:17 2,1 -1,0 2,9 NNO 5,5 1024,3 80 - -
01:22 1,9 -1,2 2,9 NO 3,5 1024,6 80 - -
01:27 1,9 -1,2 2,9 NO 3,5 1024,3 80 - -
01:32 1,7 -1,4 2,9 NNO 3,2 1024,3 80 - -
01:37 1,9 -1,5 0,3 Norden 2,1 1024,3 78 - -
01:42 1,9 -1,5 1,1 Norden 1,8 1024,3 78 - -
01:47 2,0 -1,4 1,1 Norden 1,4 1024,3 78 - -
01:52 1,8 -1,5 1,4 NO 2,9 1024,3 79 - -
01:57 1,7 -1,4 0,6 Norden 2,6 1024,3 80 - -
02:02 1,6 -1,5 1,4 NNO 2,1 1024,6 80 - -
02:07 1,4 -1,7 3,2 NO 4,3 1024,6 80 - -
02:12 1,5 -1,6 3,2 NNO 3,2 1024,3 80 - -
02:17 1,5 -1,7 4,0 NNO 4,0 1024,3 79 - -
02:22 1,2 -2,0 3,5 ONO 5,0 1024,3 79 - -
02:27 1,3 -1,9 3,5 NO 5,0 1024,3 79 - -
02:32 1,5 -1,9 1,1 Süden 5,0 1024,3 78 - -
02:37 1,5 -1,6 1,1 SSW 3,5 1023,9 80 - -
02:42 1,1 -1,6 1,4 NNO 2,9 1024,3 82 - -
02:47 1,0 -1,7 0,6 Norden 2,1 1024,3 82 - -
02:52 1,1 -2,0 2,9 NNO 4,3 1024,3 80 - -
02:57 1,0 -2,1 1,8 NNO 3,2 1023,9 80 - -
03:02 1,3 -1,9 2,9 Süden 2,9 1024,3 79 - -
03:07 1,3 -2,1 1,1 Norden 2,1 1024,3 78 - -
03:12 1,0 -2,2 1,8 NNO 2,9 1024,3 79 - -
03:17 1,1 -2,1 1,1 Norden 2,1 1024,3 79 - -
03:22 1,1 -2,0 0,6 Norden 1,8 1024,3 80 - -
03:27 1,0 -1,9 1,4 NO 3,2 1024,3 81 - -
03:32 1,0 -1,9 1,4 NO 2,9 1024,6 81 - -
03:37 0,9 -2,0 3,2 NO 4,7 1024,3 81 - -
03:42 0,7 -2,0 0,6 Norden 2,6 1024,6 82 - -
03:47 0,9 -2,0 1,4 NO 1,8 1024,6 81 - -
03:52 0,9 -2,2 1,8 NNO 3,2 1024,6 80 - -
03:57 0,8 -2,3 3,5 ONO 3,5 1024,6 80 - -
04:02 0,6 -2,5 3,2 NNO 3,5 1024,6 80 - -
04:07 1,0 -2,2 0,6 Norden 2,9 1024,6 79 - -
04:12 1,0 -2,4 0,6 Norden 1,8 1024,6 78 - -
04:17 1,3 -2,5 1,4 OSO 1,4 1024,6 76 - -
04:22 1,2 -2,2 1,1 Norden 2,1 1024,6 78 - -
04:27 0,9 -2,2 1,8 NNW 2,9 1024,9 80 - -
04:32 0,5 -2,4 3,2 NNO 4,3 1024,9 81 - -
04:37 0,5 -2,2 0,3 NO 2,6 1024,9 82 - -
04:42 0,4 -2,3 2,9 NNO 3,2 1024,9 82 - -
04:47 0,4 -2,5 1,4 NNO 1,8 1024,9 81 - -
04:52 0,4 -2,6 1,8 NNO 3,2 1024,9 80 - -
04:57 0,6 -2,6 1,4 Süden 1,8 1024,9 79 - -
05:02 0,9 -2,3 1,8 Süden 3,2 1024,9 79 - -
05:07 0,8 -2,1 0,3 Norden 2,6 1024,9 81 - -
05:12 0,4 -2,3 1,4 NNO 3,5 1024,9 82 - -
05:17 0,1 -2,6 4,0 NO 5,5 1025,3 82 - -
05:22 0,1 -2,4 3,5 NO 5,5 1025,3 83 - -
05:27 0,1 -2,4 2,9 NNO 4,0 1025,3 83 - -
05:32 0,1 -2,6 2,6 ONO 2,9 1025,3 82 - -
05:37 0,2 -2,7 0,6 Norden 3,2 1025,3 81 - -
05:42 0,2 -3,0 0,6 NO 1,8 1025,3 79 - -
05:47 0,1 -3,1 2,9 NNO 4,0 1025,3 79 - -
05:52 0,4 -3,2 2,1 ONO 2,9 1025,3 77 - -
05:57 0,5 -2,9 1,1 WSW 2,6 1025,3 78 - -
06:02 0,1 -3,1 2,9 NO 3,2 1025,3 79 - -
06:07 0,0 -3,0 2,1 NO 2,6 1025,3 80 - -
06:12 -0,3 -3,3 3,2 NNO 4,3 1025,6 80 - -
06:17 -0,2 -3,4 2,6 NNO 3,2 1025,6 79 - -
06:22 0,0 -3,5 2,6 ONO 3,2 1025,6 77 - -
06:27 -0,1 -3,5 2,9 ONO 4,7 1025,6 78 - -
06:32 0,0 -3,4 1,8 Norden 2,9 1025,6 78 - -
06:37 0,0 -3,5 2,9 NNO 4,0 1025,6 77 - -
06:42 -0,1 -3,6 2,6 NNO 5,0 1025,6 77 - -
06:47 0,1 -3,6 1,4 NNO 2,9 1025,6 76 - -
06:52 -0,1 -4,0 2,1 NO 4,3 1026,0 75 - -
06:57 -0,1 -3,8 2,6 NO 2,9 1025,6 76 - -
07:02 -0,1 -3,8 4,0 NO 4,0 1026,0 76 - -
07:07 -0,2 -3,7 2,9 NO 4,0 1026,0 77 - -
07:12 -0,1 -3,6 2,9 NNO 3,5 1026,3 77 - -
07:17 0,1 -3,6 1,8 NNO 1,8 1026,3 76 - -
07:22 0,6 -3,3 2,1 Norden 2,1 1026,0 75 - -
Tägliche Zusammenfassung für Dienstag 19 März 2019
Zeit Temp. ( °C ) Dew pt. ( °C ) Wind ( km/h ) von Windböen ( km/h ) Luftdruck ( hPa ) Humid.( % ) Rainrate ( cm ) Solar ( W/m2 )
Hoch2,9 0,0 4,3 NNO ( 76/185 ) 5,5 1026,3 83 - 0
Durchchnittswerte1,1 -2,1 2,1 NNO #31/89 3,2 1024,8 79 - NAN #0/89
Wenig-0,3 -4,0 0,3   1,1 1023,9 75 -  
Tägliche Tabular details for Dienstag 19 März 2019
Zeit Temp. ( °C ) Dew pt. ( °C ) Wind ( km/h ) von Windböen ( km/h ) Luftdruck ( hPa ) Humid.( % ) Rainrate ( cm ) Solar ( W/m2 )
00:02 2,9 -0,2 1,1 Norden 1,1 1024,6 80 - -
00:07 2,8 0,0 2,1 NNO 2,9 1024,3 82 - -
00:12 2,5 -0,3 2,6 NO 3,5 1024,6 82 - -
00:17 2,5 -0,3 2,1 NNO 3,5 1024,6 82 - -
00:22 2,6 -0,5 0,3 Norden 2,1 1024,6 80 - -
00:27 2,7 -0,6 1,1 NNO 2,9 1024,3 79 - -
00:32 2,9 -0,6 2,9 NNO 2,9 1024,3 78 - -
00:37 2,6 -0,7 3,2 NO 4,3 1024,3 79 - -
00:42 2,3 -0,8 4,3 NO 5,0 1024,3 80 - -
00:47 2,2 -0,9 2,9 NNO 3,2 1024,6 80 - -
00:52 2,3 -1,0 0,6 Osten 2,1 1024,3 79 - -
00:57 2,5 -0,8 2,6 SSW 2,6 1024,3 79 - -
01:02 2,4 -0,9 2,6 Norden 4,0 1024,3 79 - -
01:07 2,1 -0,8 3,2 NNO 4,3 1024,6 81 - -
01:12 2,0 -0,7 2,1 NO 4,0 1024,6 82 - -
01:17 2,1 -1,0 2,9 NNO 5,5 1024,3 80 - -
01:22 1,9 -1,2 2,9 NO 3,5 1024,6 80 - -
01:27 1,9 -1,2 2,9 NO 3,5 1024,3 80 - -
01:32 1,7 -1,4 2,9 NNO 3,2 1024,3 80 - -
01:37 1,9 -1,5 0,3 Norden 2,1 1024,3 78 - -
01:42 1,9 -1,5 1,1 Norden 1,8 1024,3 78 - -
01:47 2,0 -1,4 1,1 Norden 1,4 1024,3 78 - -
01:52 1,8 -1,5 1,4 NO 2,9 1024,3 79 - -
01:57 1,7 -1,4 0,6 Norden 2,6 1024,3 80 - -
02:02 1,6 -1,5 1,4 NNO 2,1 1024,6 80 - -
02:07 1,4 -1,7 3,2 NO 4,3 1024,6 80 - -
02:12 1,5 -1,6 3,2 NNO 3,2 1024,3 80 - -
02:17 1,5 -1,7 4,0 NNO 4,0 1024,3 79 - -
02:22 1,2 -2,0 3,5 ONO 5,0 1024,3 79 - -
02:27 1,3 -1,9 3,5 NO 5,0 1024,3 79 - -
02:32 1,5 -1,9 1,1 Süden 5,0 1024,3 78 - -
02:37 1,5 -1,6 1,1 SSW 3,5 1023,9 80 - -
02:42 1,1 -1,6 1,4 NNO 2,9 1024,3 82 - -
02:47 1,0 -1,7 0,6 Norden 2,1 1024,3 82 - -
02:52 1,1 -2,0 2,9 NNO 4,3 1024,3 80 - -
02:57 1,0 -2,1 1,8 NNO 3,2 1023,9 80 - -
03:02 1,3 -1,9 2,9 Süden 2,9 1024,3 79 - -
03:07 1,3 -2,1 1,1 Norden 2,1 1024,3 78 - -
03:12 1,0 -2,2 1,8 NNO 2,9 1024,3 79 - -
03:17 1,1 -2,1 1,1 Norden 2,1 1024,3 79 - -
03:22 1,1 -2,0 0,6 Norden 1,8 1024,3 80 - -
03:27 1,0 -1,9 1,4 NO 3,2 1024,3 81 - -
03:32 1,0 -1,9 1,4 NO 2,9 1024,6 81 - -
03:37 0,9 -2,0 3,2 NO 4,7 1024,3 81 - -
03:42 0,7 -2,0 0,6 Norden 2,6 1024,6 82 - -
03:47 0,9 -2,0 1,4 NO 1,8 1024,6 81 - -
03:52 0,9 -2,2 1,8 NNO 3,2 1024,6 80 - -
03:57 0,8 -2,3 3,5 ONO 3,5 1024,6 80 - -
04:02 0,6 -2,5 3,2 NNO 3,5 1024,6 80 - -
04:07 1,0 -2,2 0,6 Norden 2,9 1024,6 79 - -
04:12 1,0 -2,4 0,6 Norden 1,8 1024,6 78 - -
04:17 1,3 -2,5 1,4 OSO 1,4 1024,6 76 - -
04:22 1,2 -2,2 1,1 Norden 2,1 1024,6 78 - -
04:27 0,9 -2,2 1,8 NNW 2,9 1024,9 80 - -
04:32 0,5 -2,4 3,2 NNO 4,3 1024,9 81 - -
04:37 0,5 -2,2 0,3 NO 2,6 1024,9 82 - -
04:42 0,4 -2,3 2,9 NNO 3,2 1024,9 82 - -
04:47 0,4 -2,5 1,4 NNO 1,8 1024,9 81 - -
04:52 0,4 -2,6 1,8 NNO 3,2 1024,9 80 - -
04:57 0,6 -2,6 1,4 Süden 1,8 1024,9 79 - -
05:02 0,9 -2,3 1,8 Süden 3,2 1024,9 79 - -
05:07 0,8 -2,1 0,3 Norden 2,6 1024,9 81 - -
05:12 0,4 -2,3 1,4 NNO 3,5 1024,9 82 - -
05:17 0,1 -2,6 4,0 NO 5,5 1025,3 82 - -
05:22 0,1 -2,4 3,5 NO 5,5 1025,3 83 - -
05:27 0,1 -2,4 2,9 NNO 4,0 1025,3 83 - -
05:32 0,1 -2,6 2,6 ONO 2,9 1025,3 82 - -
05:37 0,2 -2,7 0,6 Norden 3,2 1025,3 81 - -
05:42 0,2 -3,0 0,6 NO 1,8 1025,3 79 - -
05:47 0,1 -3,1 2,9 NNO 4,0 1025,3 79 - -
05:52 0,4 -3,2 2,1 ONO 2,9 1025,3 77 - -
05:57 0,5 -2,9 1,1 WSW 2,6 1025,3 78 - -
06:02 0,1 -3,1 2,9 NO 3,2 1025,3 79 - -
06:07 0,0 -3,0 2,1 NO 2,6 1025,3 80 - -
06:12 -0,3 -3,3 3,2 NNO 4,3 1025,6 80 - -
06:17 -0,2 -3,4 2,6 NNO 3,2 1025,6 79 - -
06:22 0,0 -3,5 2,6 ONO 3,2 1025,6 77 - -
06:27 -0,1 -3,5 2,9 ONO 4,7 1025,6 78 - -
06:32 0,0 -3,4 1,8 Norden 2,9 1025,6 78 - -
06:37 0,0 -3,5 2,9 NNO 4,0 1025,6 77 - -
06:42 -0,1 -3,6 2,6 NNO 5,0 1025,6 77 - -
06:47 0,1 -3,6 1,4 NNO 2,9 1025,6 76 - -
06:52 -0,1 -4,0 2,1 NO 4,3 1026,0 75 - -
06:57 -0,1 -3,8 2,6 NO 2,9 1025,6 76 - -
07:02 -0,1 -3,8 4,0 NO 4,0 1026,0 76 - -
07:07 -0,2 -3,7 2,9 NO 4,0 1026,0 77 - -
07:12 -0,1 -3,6 2,9 NNO 3,5 1026,3 77 - -
07:17 0,1 -3,6 1,8 NNO 1,8 1026,3 76 - -
07:22 0,6 -3,3 2,1 Norden 2,1 1026,0 75 - -

Download your copy of this data-set  here

Our weather-data as stored at Weather Underground. Script entwickelt von Jim McMurry. Angepasst für das Template von Leuven-Template.eu